sensor_id;sensor_type;location;lat;lon;timestamp;P1;durP1;ratioP1;P2;durP2;ratioP2
11998;SDS011;40817;51.520;9.954;2022-12-07T00:01:37;11.88;;;7.38;;
11998;SDS011;40817;51.520;9.954;2022-12-07T00:04:08;13.02;;;7.53;;
11998;SDS011;40817;51.520;9.954;2022-12-07T00:06:41;11.98;;;7.50;;
11998;SDS011;40817;51.520;9.954;2022-12-07T00:09:11;12.23;;;7.45;;
11998;SDS011;40817;51.520;9.954;2022-12-07T00:11:41;10.77;;;6.95;;
11998;SDS011;40817;51.520;9.954;2022-12-07T00:14:12;10.98;;;7.05;;
11998;SDS011;40817;51.520;9.954;2022-12-07T00:16:42;10.48;;;6.57;;
11998;SDS011;40817;51.520;9.954;2022-12-07T00:19:11;10.88;;;6.75;;
11998;SDS011;40817;51.520;9.954;2022-12-07T00:21:40;11.80;;;7.05;;
11998;SDS011;40817;51.520;9.954;2022-12-07T00:24:09;12.27;;;8.45;;
11998;SDS011;40817;51.520;9.954;2022-12-07T00:26:39;11.45;;;6.80;;
11998;SDS011;40817;51.520;9.954;2022-12-07T00:29:11;10.02;;;6.65;;
11998;SDS011;40817;51.520;9.954;2022-12-07T00:31:44;11.70;;;6.95;;
11998;SDS011;40817;51.520;9.954;2022-12-07T00:34:14;11.43;;;7.30;;
11998;SDS011;40817;51.520;9.954;2022-12-07T00:36:44;11.35;;;7.07;;
11998;SDS011;40817;51.520;9.954;2022-12-07T00:39:13;11.80;;;7.65;;
11998;SDS011;40817;51.520;9.954;2022-12-07T00:41:41;11.63;;;7.07;;
11998;SDS011;40817;51.520;9.954;2022-12-07T00:44:09;12.80;;;7.43;;
11998;SDS011;40817;51.520;9.954;2022-12-07T00:46:38;12.80;;;7.45;;
11998;SDS011;40817;51.520;9.954;2022-12-07T00:49:06;12.63;;;7.68;;
11998;SDS011;40817;51.520;9.954;2022-12-07T00:51:33;13.05;;;8.18;;
11998;SDS011;40817;51.520;9.954;2022-12-07T00:54:01;11.55;;;7.22;;
11998;SDS011;40817;51.520;9.954;2022-12-07T00:56:29;14.23;;;8.07;;
11998;SDS011;40817;51.520;9.954;2022-12-07T00:58:58;12.63;;;7.20;;
11998;SDS011;40817;51.520;9.954;2022-12-07T01:01:29;12.30;;;7.32;;
11998;SDS011;40817;51.520;9.954;2022-12-07T01:04:02;12.30;;;7.95;;
11998;SDS011;40817;51.520;9.954;2022-12-07T01:06:30;13.93;;;7.80;;
11998;SDS011;40817;51.520;9.954;2022-12-07T01:08:59;11.40;;;7.75;;
11998;SDS011;40817;51.520;9.954;2022-12-07T01:11:27;13.57;;;7.78;;
11998;SDS011;40817;51.520;9.954;2022-12-07T01:13:57;12.30;;;7.78;;
11998;SDS011;40817;51.520;9.954;2022-12-07T01:16:27;12.68;;;7.22;;
11998;SDS011;40817;51.520;9.954;2022-12-07T01:18:57;12.05;;;7.43;;
11998;SDS011;40817;51.520;9.954;2022-12-07T01:21:28;12.43;;;7.90;;
11998;SDS011;40817;51.520;9.954;2022-12-07T01:24:00;11.85;;;7.63;;
11998;SDS011;40817;51.520;9.954;2022-12-07T01:26:29;13.23;;;8.10;;
11998;SDS011;40817;51.520;9.954;2022-12-07T01:28:57;11.82;;;8.00;;
11998;SDS011;40817;51.520;9.954;2022-12-07T01:31:30;11.88;;;7.10;;
11998;SDS011;40817;51.520;9.954;2022-12-07T01:33:58;12.80;;;8.68;;
11998;SDS011;40817;51.520;9.954;2022-12-07T01:36:28;13.45;;;7.63;;
11998;SDS011;40817;51.520;9.954;2022-12-07T01:39:00;11.93;;;7.65;;
11998;SDS011;40817;51.520;9.954;2022-12-07T01:41:32;15.13;;;8.15;;
11998;SDS011;40817;51.520;9.954;2022-12-07T01:46:55;13.02;;;8.00;;
11998;SDS011;40817;51.520;9.954;2022-12-07T01:49:27;12.93;;;8.40;;
11998;SDS011;40817;51.520;9.954;2022-12-07T01:52:03;13.88;;;8.57;;
11998;SDS011;40817;51.520;9.954;2022-12-07T01:54:42;13.73;;;8.32;;
11998;SDS011;40817;51.520;9.954;2022-12-07T01:57:11;12.68;;;8.10;;
11998;SDS011;40817;51.520;9.954;2022-12-07T01:59:43;12.98;;;9.10;;
11998;SDS011;40817;51.520;9.954;2022-12-07T02:02:15;12.95;;;8.00;;
11998;SDS011;40817;51.520;9.954;2022-12-07T02:04:49;14.77;;;9.10;;
11998;SDS011;40817;51.520;9.954;2022-12-07T02:07:20;13.15;;;8.02;;
11998;SDS011;40817;51.520;9.954;2022-12-07T02:09:50;11.07;;;7.57;;
11998;SDS011;40817;51.520;9.954;2022-12-07T02:12:17;12.82;;;8.25;;
11998;SDS011;40817;51.520;9.954;2022-12-07T02:14:47;15.77;;;8.68;;
11998;SDS011;40817;51.520;9.954;2022-12-07T02:17:18;12.32;;;8.13;;
11998;SDS011;40817;51.520;9.954;2022-12-07T02:23:01;11.30;;;6.97;;
11998;SDS011;40817;51.520;9.954;2022-12-07T02:26:28;13.98;;;7.38;;
11998;SDS011;40817;51.520;9.954;2022-12-07T02:29:57;11.17;;;7.43;;
11998;SDS011;40817;51.520;9.954;2022-12-07T02:32:30;15.43;;;7.63;;
11998;SDS011;40817;51.520;9.954;2022-12-07T02:35:15;11.32;;;8.05;;
11998;SDS011;40817;51.520;9.954;2022-12-07T02:40:29;12.10;;;7.63;;
11998;SDS011;40817;51.520;9.954;2022-12-07T02:43:06;11.40;;;7.00;;
11998;SDS011;40817;51.520;9.954;2022-12-07T02:45:40;13.15;;;7.22;;
11998;SDS011;40817;51.520;9.954;2022-12-07T02:48:11;11.60;;;6.85;;
11998;SDS011;40817;51.520;9.954;2022-12-07T02:50:44;13.13;;;7.82;;
11998;SDS011;40817;51.520;9.954;2022-12-07T02:53:31;12.73;;;7.88;;
11998;SDS011;40817;51.520;9.954;2022-12-07T02:56:01;12.00;;;7.38;;
11998;SDS011;40817;51.520;9.954;2022-12-07T03:01:20;12.65;;;7.65;;
11998;SDS011;40817;51.520;9.954;2022-12-07T03:04:07;11.68;;;7.57;;
11998;SDS011;40817;51.520;9.954;2022-12-07T03:06:53;12.80;;;7.88;;
11998;SDS011;40817;51.520;9.954;2022-12-07T03:09:32;12.35;;;7.28;;
11998;SDS011;40817;51.520;9.954;2022-12-07T03:12:12;15.20;;;8.05;;
11998;SDS011;40817;51.520;9.954;2022-12-07T03:14:49;11.77;;;7.57;;
11998;SDS011;40817;51.520;9.954;2022-12-07T03:17:25;15.07;;;8.23;;
11998;SDS011;40817;51.520;9.954;2022-12-07T03:19:57;10.15;;;7.38;;
11998;SDS011;40817;51.520;9.954;2022-12-07T03:22:31;10.70;;;7.18;;
11998;SDS011;40817;51.520;9.954;2022-12-07T03:25:03;13.95;;;8.23;;
11998;SDS011;40817;51.520;9.954;2022-12-07T03:27:37;12.23;;;7.50;;
11998;SDS011;40817;51.520;9.954;2022-12-07T03:30:14;13.40;;;8.18;;
11998;SDS011;40817;51.520;9.954;2022-12-07T03:32:49;12.73;;;8.10;;
11998;SDS011;40817;51.520;9.954;2022-12-07T03:35:25;12.57;;;7.82;;
11998;SDS011;40817;51.520;9.954;2022-12-07T03:37:59;11.55;;;7.70;;
11998;SDS011;40817;51.520;9.954;2022-12-07T03:40:40;12.45;;;7.53;;
11998;SDS011;40817;51.520;9.954;2022-12-07T03:43:17;10.53;;;7.07;;
11998;SDS011;40817;51.520;9.954;2022-12-07T03:45:47;16.20;;;8.60;;
11998;SDS011;40817;51.520;9.954;2022-12-07T03:48:34;12.18;;;7.78;;
11998;SDS011;40817;51.520;9.954;2022-12-07T03:51:08;12.95;;;8.35;;
11998;SDS011;40817;51.520;9.954;2022-12-07T03:53:48;13.18;;;8.50;;
11998;SDS011;40817;51.520;9.954;2022-12-07T03:56:21;11.88;;;7.55;;
11998;SDS011;40817;51.520;9.954;2022-12-07T03:58:50;12.25;;;7.43;;
11998;SDS011;40817;51.520;9.954;2022-12-07T04:01:19;12.85;;;7.43;;
11998;SDS011;40817;51.520;9.954;2022-12-07T04:04:08;12.43;;;7.55;;
11998;SDS011;40817;51.520;9.954;2022-12-07T04:06:35;11.38;;;7.95;;
11998;SDS011;40817;51.520;9.954;2022-12-07T04:09:03;12.20;;;7.57;;
11998;SDS011;40817;51.520;9.954;2022-12-07T04:11:30;12.98;;;7.63;;
11998;SDS011;40817;51.520;9.954;2022-12-07T04:13:58;12.13;;;7.18;;
11998;SDS011;40817;51.520;9.954;2022-12-07T04:16:42;10.80;;;7.25;;
11998;SDS011;40817;51.520;9.954;2022-12-07T04:19:12;11.60;;;7.72;;
11998;SDS011;40817;51.520;9.954;2022-12-07T04:21:41;14.75;;;8.32;;
11998;SDS011;40817;51.520;9.954;2022-12-07T04:24:09;12.77;;;8.10;;
11998;SDS011;40817;51.520;9.954;2022-12-07T04:26:38;14.38;;;8.55;;
11998;SDS011;40817;51.520;9.954;2022-12-07T04:29:06;13.90;;;9.32;;
11998;SDS011;40817;51.520;9.954;2022-12-07T04:31:34;12.98;;;8.43;;
11998;SDS011;40817;51.520;9.954;2022-12-07T04:34:04;11.93;;;8.10;;
11998;SDS011;40817;51.520;9.954;2022-12-07T04:36:34;13.65;;;8.77;;
11998;SDS011;40817;51.520;9.954;2022-12-07T04:39:02;13.77;;;9.27;;
11998;SDS011;40817;51.520;9.954;2022-12-07T04:41:31;12.25;;;8.48;;
11998;SDS011;40817;51.520;9.954;2022-12-07T04:44:00;11.25;;;7.88;;
11998;SDS011;40817;51.520;9.954;2022-12-07T04:46:32;12.50;;;8.25;;
11998;SDS011;40817;51.520;9.954;2022-12-07T04:49:00;13.02;;;8.70;;
11998;SDS011;40817;51.520;9.954;2022-12-07T04:51:31;15.07;;;8.55;;
11998;SDS011;40817;51.520;9.954;2022-12-07T04:54:01;15.43;;;9.75;;
11998;SDS011;40817;51.520;9.954;2022-12-07T04:56:29;15.68;;;9.80;;
11998;SDS011;40817;51.520;9.954;2022-12-07T04:58:57;13.65;;;9.10;;
11998;SDS011;40817;51.520;9.954;2022-12-07T05:01:25;14.57;;;9.50;;
11998;SDS011;40817;51.520;9.954;2022-12-07T05:03:53;20.05;;;10.27;;
11998;SDS011;40817;51.520;9.954;2022-12-07T05:06:20;17.15;;;10.00;;
11998;SDS011;40817;51.520;9.954;2022-12-07T05:08:51;15.65;;;10.15;;
11998;SDS011;40817;51.520;9.954;2022-12-07T05:11:20;16.00;;;9.88;;
11998;SDS011;40817;51.520;9.954;2022-12-07T05:14:07;15.23;;;10.38;;
11998;SDS011;40817;51.520;9.954;2022-12-07T05:16:40;15.48;;;9.77;;
11998;SDS011;40817;51.520;9.954;2022-12-07T05:19:13;14.70;;;9.45;;
11998;SDS011;40817;51.520;9.954;2022-12-07T05:21:41;18.23;;;9.82;;
11998;SDS011;40817;51.520;9.954;2022-12-07T05:24:15;15.02;;;9.02;;
11998;SDS011;40817;51.520;9.954;2022-12-07T05:26:45;15.82;;;8.80;;
11998;SDS011;40817;51.520;9.954;2022-12-07T05:29:21;14.88;;;9.70;;
11998;SDS011;40817;51.520;9.954;2022-12-07T05:31:52;15.57;;;9.30;;
11998;SDS011;40817;51.520;9.954;2022-12-07T05:34:21;16.13;;;8.90;;
11998;SDS011;40817;51.520;9.954;2022-12-07T05:36:50;17.05;;;9.95;;
11998;SDS011;40817;51.520;9.954;2022-12-07T05:39:24;14.38;;;8.82;;
11998;SDS011;40817;51.520;9.954;2022-12-07T05:41:52;22.17;;;9.35;;
11998;SDS011;40817;51.520;9.954;2022-12-07T05:44:46;16.10;;;8.48;;
11998;SDS011;40817;51.520;9.954;2022-12-07T05:47:16;14.32;;;8.77;;
11998;SDS011;40817;51.520;9.954;2022-12-07T05:49:46;15.07;;;9.15;;
11998;SDS011;40817;51.520;9.954;2022-12-07T05:52:14;17.48;;;9.88;;
11998;SDS011;40817;51.520;9.954;2022-12-07T05:54:45;15.07;;;8.60;;
11998;SDS011;40817;51.520;9.954;2022-12-07T05:57:12;14.98;;;8.55;;
11998;SDS011;40817;51.520;9.954;2022-12-07T05:59:40;18.52;;;9.68;;
11998;SDS011;40817;51.520;9.954;2022-12-07T06:02:08;14.23;;;7.90;;
11998;SDS011;40817;51.520;9.954;2022-12-07T06:04:39;12.80;;;8.55;;
11998;SDS011;40817;51.520;9.954;2022-12-07T06:07:10;14.45;;;8.23;;
11998;SDS011;40817;51.520;9.954;2022-12-07T06:09:40;14.07;;;7.95;;
11998;SDS011;40817;51.520;9.954;2022-12-07T06:12:10;15.27;;;8.32;;
11998;SDS011;40817;51.520;9.954;2022-12-07T06:14:57;12.13;;;7.20;;
11998;SDS011;40817;51.520;9.954;2022-12-07T06:17:25;14.02;;;7.22;;
11998;SDS011;40817;51.520;9.954;2022-12-07T06:19:54;17.60;;;8.27;;
11998;SDS011;40817;51.520;9.954;2022-12-07T06:22:22;13.63;;;7.32;;
11998;SDS011;40817;51.520;9.954;2022-12-07T06:24:49;15.55;;;6.43;;
11998;SDS011;40817;51.520;9.954;2022-12-07T06:27:18;15.30;;;7.30;;
11998;SDS011;40817;51.520;9.954;2022-12-07T06:29:46;14.63;;;7.68;;
11998;SDS011;40817;51.520;9.954;2022-12-07T06:32:16;12.57;;;6.50;;
11998;SDS011;40817;51.520;9.954;2022-12-07T06:34:43;15.55;;;7.72;;
11998;SDS011;40817;51.520;9.954;2022-12-07T06:37:11;12.25;;;7.50;;
11998;SDS011;40817;51.520;9.954;2022-12-07T06:39:39;11.10;;;6.70;;
11998;SDS011;40817;51.520;9.954;2022-12-07T06:42:07;12.15;;;6.40;;
11998;SDS011;40817;51.520;9.954;2022-12-07T06:44:36;14.95;;;6.95;;
11998;SDS011;40817;51.520;9.954;2022-12-07T06:47:03;17.50;;;7.07;;
11998;SDS011;40817;51.520;9.954;2022-12-07T06:49:33;11.85;;;6.22;;
11998;SDS011;40817;51.520;9.954;2022-12-07T06:52:00;12.05;;;7.25;;
11998;SDS011;40817;51.520;9.954;2022-12-07T06:54:30;14.40;;;6.60;;
11998;SDS011;40817;51.520;9.954;2022-12-07T06:56:58;12.50;;;6.20;;
11998;SDS011;40817;51.520;9.954;2022-12-07T06:59:25;12.38;;;5.75;;
11998;SDS011;40817;51.520;9.954;2022-12-07T07:01:56;9.57;;;5.95;;
11998;SDS011;40817;51.520;9.954;2022-12-07T07:04:23;11.43;;;5.95;;
11998;SDS011;40817;51.520;9.954;2022-12-07T07:06:51;11.75;;;6.18;;
11998;SDS011;40817;51.520;9.954;2022-12-07T07:09:18;11.35;;;6.15;;
11998;SDS011;40817;51.520;9.954;2022-12-07T07:11:46;14.95;;;6.47;;
11998;SDS011;40817;51.520;9.954;2022-12-07T07:14:13;13.60;;;6.07;;
11998;SDS011;40817;51.520;9.954;2022-12-07T07:16:44;12.32;;;6.70;;
11998;SDS011;40817;51.520;9.954;2022-12-07T07:19:13;10.35;;;6.05;;
11998;SDS011;40817;51.520;9.954;2022-12-07T07:21:40;9.00;;;5.80;;
11998;SDS011;40817;51.520;9.954;2022-12-07T07:24:08;10.10;;;5.78;;
11998;SDS011;40817;51.520;9.954;2022-12-07T07:26:36;15.48;;;6.47;;
11998;SDS011;40817;51.520;9.954;2022-12-07T07:29:04;10.52;;;5.65;;
11998;SDS011;40817;51.520;9.954;2022-12-07T07:31:31;8.88;;;5.43;;
11998;SDS011;40817;51.520;9.954;2022-12-07T07:34:00;9.57;;;5.82;;
11998;SDS011;40817;51.520;9.954;2022-12-07T07:36:29;9.70;;;5.13;;
11998;SDS011;40817;51.520;9.954;2022-12-07T07:38:57;10.98;;;5.60;;
11998;SDS011;40817;51.520;9.954;2022-12-07T07:41:24;13.75;;;5.90;;
11998;SDS011;40817;51.520;9.954;2022-12-07T07:43:52;10.38;;;5.15;;
11998;SDS011;40817;51.520;9.954;2022-12-07T07:46:19;7.72;;;5.15;;
11998;SDS011;40817;51.520;9.954;2022-12-07T07:48:52;12.73;;;5.60;;
11998;SDS011;40817;51.520;9.954;2022-12-07T07:51:19;12.25;;;6.32;;
11998;SDS011;40817;51.520;9.954;2022-12-07T07:53:48;10.27;;;5.60;;
11998;SDS011;40817;51.520;9.954;2022-12-07T07:56:16;9.80;;;6.13;;
11998;SDS011;40817;51.520;9.954;2022-12-07T07:58:43;14.52;;;5.63;;
11998;SDS011;40817;51.520;9.954;2022-12-07T08:01:11;14.07;;;5.80;;
11998;SDS011;40817;51.520;9.954;2022-12-07T08:03:40;11.55;;;6.07;;
11998;SDS011;40817;51.520;9.954;2022-12-07T08:06:07;12.32;;;6.47;;
11998;SDS011;40817;51.520;9.954;2022-12-07T08:08:35;14.45;;;6.95;;
11998;SDS011;40817;51.520;9.954;2022-12-07T08:11:06;11.10;;;6.65;;
11998;SDS011;40817;51.520;9.954;2022-12-07T08:13:34;12.05;;;5.72;;
11998;SDS011;40817;51.520;9.954;2022-12-07T08:16:03;10.82;;;5.38;;
11998;SDS011;40817;51.520;9.954;2022-12-07T08:18:34;9.93;;;5.57;;
11998;SDS011;40817;51.520;9.954;2022-12-07T08:21:03;9.07;;;5.00;;
11998;SDS011;40817;51.520;9.954;2022-12-07T08:23:33;9.00;;;5.22;;
11998;SDS011;40817;51.520;9.954;2022-12-07T08:26:01;10.55;;;4.85;;
11998;SDS011;40817;51.520;9.954;2022-12-07T08:28:31;11.35;;;5.05;;
11998;SDS011;40817;51.520;9.954;2022-12-07T08:30:59;9.98;;;4.82;;
11998;SDS011;40817;51.520;9.954;2022-12-07T08:33:27;10.23;;;4.85;;
11998;SDS011;40817;51.520;9.954;2022-12-07T08:35:55;8.90;;;4.20;;
11998;SDS011;40817;51.520;9.954;2022-12-07T08:38:27;7.05;;;4.25;;
11998;SDS011;40817;51.520;9.954;2022-12-07T08:40:55;7.30;;;4.70;;
11998;SDS011;40817;51.520;9.954;2022-12-07T08:43:23;9.73;;;4.40;;
11998;SDS011;40817;51.520;9.954;2022-12-07T08:46:03;8.73;;;4.40;;
11998;SDS011;40817;51.520;9.954;2022-12-07T08:48:38;7.55;;;4.28;;
11998;SDS011;40817;51.520;9.954;2022-12-07T08:51:11;9.00;;;5.25;;
11998;SDS011;40817;51.520;9.954;2022-12-07T08:53:40;8.30;;;4.47;;
11998;SDS011;40817;51.520;9.954;2022-12-07T08:56:09;9.25;;;4.72;;
11998;SDS011;40817;51.520;9.954;2022-12-07T08:58:37;13.07;;;5.03;;
11998;SDS011;40817;51.520;9.954;2022-12-07T09:01:06;9.23;;;4.45;;
11998;SDS011;40817;51.520;9.954;2022-12-07T09:03:34;8.52;;;4.13;;
11998;SDS011;40817;51.520;9.954;2022-12-07T09:06:02;6.90;;;4.53;;
11998;SDS011;40817;51.520;9.954;2022-12-07T09:08:31;8.05;;;4.07;;
11998;SDS011;40817;51.520;9.954;2022-12-07T09:11:04;12.52;;;4.45;;
11998;SDS011;40817;51.520;9.954;2022-12-07T09:13:32;9.90;;;5.00;;
11998;SDS011;40817;51.520;9.954;2022-12-07T09:15:59;9.20;;;4.30;;
11998;SDS011;40817;51.520;9.954;2022-12-07T09:18:28;8.80;;;4.85;;
11998;SDS011;40817;51.520;9.954;2022-12-07T09:20:56;8.93;;;5.47;;
11998;SDS011;40817;51.520;9.954;2022-12-07T09:23:24;11.27;;;5.45;;
11998;SDS011;40817;51.520;9.954;2022-12-07T09:25:51;8.43;;;4.97;;
11998;SDS011;40817;51.520;9.954;2022-12-07T09:28:19;10.80;;;4.78;;
11998;SDS011;40817;51.520;9.954;2022-12-07T09:30:47;9.05;;;5.30;;
11998;SDS011;40817;51.520;9.954;2022-12-07T09:33:15;10.40;;;4.95;;
11998;SDS011;40817;51.520;9.954;2022-12-07T09:35:47;9.00;;;5.05;;
11998;SDS011;40817;51.520;9.954;2022-12-07T09:38:17;10.05;;;4.95;;
11998;SDS011;40817;51.520;9.954;2022-12-07T09:40:45;7.97;;;5.05;;
11998;SDS011;40817;51.520;9.954;2022-12-07T09:43:14;11.15;;;4.65;;
11998;SDS011;40817;51.520;9.954;2022-12-07T09:45:47;8.88;;;4.30;;
11998;SDS011;40817;51.520;9.954;2022-12-07T09:48:19;7.72;;;4.10;;
11998;SDS011;40817;51.520;9.954;2022-12-07T09:50:59;9.25;;;4.50;;
11998;SDS011;40817;51.520;9.954;2022-12-07T09:53:29;8.07;;;4.20;;
11998;SDS011;40817;51.520;9.954;2022-12-07T09:56:03;9.32;;;4.60;;
11998;SDS011;40817;51.520;9.954;2022-12-07T09:58:32;12.13;;;4.47;;
11998;SDS011;40817;51.520;9.954;2022-12-07T10:01:01;6.45;;;4.43;;
11998;SDS011;40817;51.520;9.954;2022-12-07T10:03:40;7.03;;;4.47;;
11998;SDS011;40817;51.520;9.954;2022-12-07T10:06:17;6.80;;;4.30;;
11998;SDS011;40817;51.520;9.954;2022-12-07T10:08:45;8.13;;;3.97;;
11998;SDS011;40817;51.520;9.954;2022-12-07T10:11:14;9.45;;;4.10;;
11998;SDS011;40817;51.520;9.954;2022-12-07T10:13:42;7.32;;;4.05;;
11998;SDS011;40817;51.520;9.954;2022-12-07T10:19:17;5.70;;;3.60;;
11998;SDS011;40817;51.520;9.954;2022-12-07T10:22:02;10.43;;;5.68;;
11998;SDS011;40817;51.520;9.954;2022-12-07T10:24:38;10.13;;;4.15;;
11998;SDS011;40817;51.520;9.954;2022-12-07T10:27:16;7.40;;;3.58;;
11998;SDS011;40817;51.520;9.954;2022-12-07T10:29:51;8.23;;;4.10;;
11998;SDS011;40817;51.520;9.954;2022-12-07T10:32:30;10.55;;;3.88;;
11998;SDS011;40817;51.520;9.954;2022-12-07T10:35:18;12.07;;;4.53;;
11998;SDS011;40817;51.520;9.954;2022-12-07T10:37:55;6.40;;;3.38;;
11998;SDS011;40817;51.520;9.954;2022-12-07T10:40:30;11.80;;;4.07;;
11998;SDS011;40817;51.520;9.954;2022-12-07T10:43:01;9.18;;;4.18;;
11998;SDS011;40817;51.520;9.954;2022-12-07T10:45:57;7.97;;;3.75;;
11998;SDS011;40817;51.520;9.954;2022-12-07T10:49:34;8.25;;;3.10;;
11998;SDS011;40817;51.520;9.954;2022-12-07T10:52:59;7.10;;;3.53;;
11998;SDS011;40817;51.520;9.954;2022-12-07T10:56:13;7.18;;;3.70;;
11998;SDS011;40817;51.520;9.954;2022-12-07T10:59:16;5.70;;;3.30;;
11998;SDS011;40817;51.520;9.954;2022-12-07T11:02:23;8.75;;;3.60;;
11998;SDS011;40817;51.520;9.954;2022-12-07T11:05:24;6.43;;;3.30;;
11998;SDS011;40817;51.520;9.954;2022-12-07T11:08:05;11.15;;;3.28;;
11998;SDS011;40817;51.520;9.954;2022-12-07T11:10:50;6.13;;;2.97;;
11998;SDS011;40817;51.520;9.954;2022-12-07T11:13:28;7.93;;;3.00;;
11998;SDS011;40817;51.520;9.954;2022-12-07T11:16:18;8.48;;;3.40;;
11998;SDS011;40817;51.520;9.954;2022-12-07T11:19:06;7.78;;;3.33;;
11998;SDS011;40817;51.520;9.954;2022-12-07T11:22:17;6.85;;;2.88;;
11998;SDS011;40817;51.520;9.954;2022-12-07T11:25:00;5.30;;;2.58;;
11998;SDS011;40817;51.520;9.954;2022-12-07T11:27:47;7.32;;;3.25;;
11998;SDS011;40817;51.520;9.954;2022-12-07T11:30:29;7.43;;;3.30;;
11998;SDS011;40817;51.520;9.954;2022-12-07T11:33:07;6.55;;;3.53;;
11998;SDS011;40817;51.520;9.954;2022-12-07T11:35:47;7.63;;;3.53;;
11998;SDS011;40817;51.520;9.954;2022-12-07T11:38:33;7.45;;;3.20;;
11998;SDS011;40817;51.520;9.954;2022-12-07T11:41:10;7.00;;;3.17;;
11998;SDS011;40817;51.520;9.954;2022-12-07T11:43:42;7.18;;;2.92;;
11998;SDS011;40817;51.520;9.954;2022-12-07T11:46:24;7.93;;;3.13;;
11998;SDS011;40817;51.520;9.954;2022-12-07T11:49:02;5.63;;;2.78;;
11998;SDS011;40817;51.520;9.954;2022-12-07T11:51:39;10.35;;;3.08;;
11998;SDS011;40817;51.520;9.954;2022-12-07T11:54:11;7.30;;;3.40;;
11998;SDS011;40817;51.520;9.954;2022-12-07T11:56:46;5.35;;;2.63;;
11998;SDS011;40817;51.520;9.954;2022-12-07T11:59:17;9.93;;;3.03;;
11998;SDS011;40817;51.520;9.954;2022-12-07T12:01:55;9.18;;;2.88;;
11998;SDS011;40817;51.520;9.954;2022-12-07T12:04:29;6.82;;;3.08;;
11998;SDS011;40817;51.520;9.954;2022-12-07T12:07:10;6.22;;;2.83;;
11998;SDS011;40817;51.520;9.954;2022-12-07T12:09:45;7.60;;;3.40;;
11998;SDS011;40817;51.520;9.954;2022-12-07T12:12:24;9.47;;;2.97;;
11998;SDS011;40817;51.520;9.954;2022-12-07T12:15:33;5.47;;;2.67;;
11998;SDS011;40817;51.520;9.954;2022-12-07T12:18:23;7.30;;;2.85;;
11998;SDS011;40817;51.520;9.954;2022-12-07T12:21:25;8.05;;;2.67;;
11998;SDS011;40817;51.520;9.954;2022-12-07T12:23:56;9.45;;;3.03;;
11998;SDS011;40817;51.520;9.954;2022-12-07T12:26:30;6.57;;;3.08;;
11998;SDS011;40817;51.520;9.954;2022-12-07T12:29:04;7.00;;;2.78;;
11998;SDS011;40817;51.520;9.954;2022-12-07T12:31:46;6.03;;;2.35;;
11998;SDS011;40817;51.520;9.954;2022-12-07T12:34:38;5.57;;;2.42;;
11998;SDS011;40817;51.520;9.954;2022-12-07T12:37:38;6.65;;;2.80;;
11998;SDS011;40817;51.520;9.954;2022-12-07T12:59:22;5.68;;;2.30;;
11998;SDS011;40817;51.520;9.954;2022-12-07T13:01:56;6.90;;;2.55;;
11998;SDS011;40817;51.520;9.954;2022-12-07T13:04:50;6.60;;;2.35;;
11998;SDS011;40817;51.520;9.954;2022-12-07T13:10:35;6.30;;;3.40;;
11998;SDS011;40817;51.520;9.954;2022-12-07T13:13:35;9.27;;;2.83;;
11998;SDS011;40817;51.520;9.954;2022-12-07T13:25:22;5.47;;;2.40;;
11998;SDS011;40817;51.520;9.954;2022-12-07T13:28:32;8.27;;;2.88;;
11998;SDS011;40817;51.520;9.954;2022-12-07T13:31:27;8.98;;;2.55;;
11998;SDS011;40817;51.520;9.954;2022-12-07T13:34:01;11.10;;;2.72;;
11998;SDS011;40817;51.520;9.954;2022-12-07T13:36:33;5.30;;;2.60;;
11998;SDS011;40817;51.520;9.954;2022-12-07T13:39:16;6.20;;;2.28;;
11998;SDS011;40817;51.520;9.954;2022-12-07T13:41:49;6.63;;;3.00;;
11998;SDS011;40817;51.520;9.954;2022-12-07T13:44:20;6.47;;;2.33;;
11998;SDS011;40817;51.520;9.954;2022-12-07T13:46:50;17.15;;;3.13;;
11998;SDS011;40817;51.520;9.954;2022-12-07T13:49:31;5.47;;;2.92;;
11998;SDS011;40817;51.520;9.954;2022-12-07T13:52:16;6.28;;;2.60;;
11998;SDS011;40817;51.520;9.954;2022-12-07T13:54:55;12.13;;;3.73;;
11998;SDS011;40817;51.520;9.954;2022-12-07T13:57:26;7.63;;;2.90;;
11998;SDS011;40817;51.520;9.954;2022-12-07T13:59:57;7.72;;;3.40;;
11998;SDS011;40817;51.520;9.954;2022-12-07T14:02:26;6.97;;;3.03;;
11998;SDS011;40817;51.520;9.954;2022-12-07T14:05:05;8.98;;;3.22;;
11998;SDS011;40817;51.520;9.954;2022-12-07T14:07:44;5.43;;;2.85;;
11998;SDS011;40817;51.520;9.954;2022-12-07T14:10:25;22.48;;;3.35;;
11998;SDS011;40817;51.520;9.954;2022-12-07T14:12:55;10.65;;;3.33;;
11998;SDS011;40817;51.520;9.954;2022-12-07T14:15:23;8.00;;;2.88;;
11998;SDS011;40817;51.520;9.954;2022-12-07T14:17:56;8.10;;;2.58;;
11998;SDS011;40817;51.520;9.954;2022-12-07T14:20:29;5.15;;;2.58;;
11998;SDS011;40817;51.520;9.954;2022-12-07T14:23:01;8.88;;;2.97;;
11998;SDS011;40817;51.520;9.954;2022-12-07T14:25:44;8.70;;;3.50;;
11998;SDS011;40817;51.520;9.954;2022-12-07T14:28:24;11.43;;;3.38;;
11998;SDS011;40817;51.520;9.954;2022-12-07T14:30:54;6.15;;;2.50;;
11998;SDS011;40817;51.520;9.954;2022-12-07T14:33:21;9.48;;;3.03;;
11998;SDS011;40817;51.520;9.954;2022-12-07T14:35:50;6.07;;;3.28;;
11998;SDS011;40817;51.520;9.954;2022-12-07T14:38:21;4.80;;;2.80;;
11998;SDS011;40817;51.520;9.954;2022-12-07T14:40:49;7.75;;;2.88;;
11998;SDS011;40817;51.520;9.954;2022-12-07T14:43:18;7.80;;;3.10;;
11998;SDS011;40817;51.520;9.954;2022-12-07T14:45:46;7.28;;;2.92;;
11998;SDS011;40817;51.520;9.954;2022-12-07T14:48:14;9.70;;;3.78;;
11998;SDS011;40817;51.520;9.954;2022-12-07T14:50:43;8.35;;;3.55;;
11998;SDS011;40817;51.520;9.954;2022-12-07T14:53:16;12.07;;;5.88;;
11998;SDS011;40817;51.520;9.954;2022-12-07T14:55:52;11.63;;;4.32;;
11998;SDS011;40817;51.520;9.954;2022-12-07T14:58:19;9.52;;;3.85;;
11998;SDS011;40817;51.520;9.954;2022-12-07T15:00:47;7.18;;;3.10;;
11998;SDS011;40817;51.520;9.954;2022-12-07T15:03:14;7.32;;;3.53;;
11998;SDS011;40817;51.520;9.954;2022-12-07T15:05:42;7.13;;;2.92;;
11998;SDS011;40817;51.520;9.954;2022-12-07T15:08:11;10.48;;;3.17;;
11998;SDS011;40817;51.520;9.954;2022-12-07T15:10:40;10.27;;;3.50;;
11998;SDS011;40817;51.520;9.954;2022-12-07T15:13:08;5.78;;;2.97;;
11998;SDS011;40817;51.520;9.954;2022-12-07T15:15:57;7.80;;;3.35;;
11998;SDS011;40817;51.520;9.954;2022-12-07T15:18:27;7.50;;;3.15;;
11998;SDS011;40817;51.520;9.954;2022-12-07T15:20:55;7.63;;;3.25;;
11998;SDS011;40817;51.520;9.954;2022-12-07T15:23:22;6.50;;;2.97;;
11998;SDS011;40817;51.520;9.954;2022-12-07T15:26:10;7.60;;;3.10;;
11998;SDS011;40817;51.520;9.954;2022-12-07T15:28:38;8.70;;;2.70;;
11998;SDS011;40817;51.520;9.954;2022-12-07T15:31:10;12.05;;;3.63;;
11998;SDS011;40817;51.520;9.954;2022-12-07T15:33:38;6.53;;;2.67;;
11998;SDS011;40817;51.520;9.954;2022-12-07T15:36:06;11.52;;;2.80;;
11998;SDS011;40817;51.520;9.954;2022-12-07T15:38:41;12.15;;;2.95;;
11998;SDS011;40817;51.520;9.954;2022-12-07T15:41:10;5.57;;;2.50;;
11998;SDS011;40817;51.520;9.954;2022-12-07T15:43:38;6.70;;;3.05;;
11998;SDS011;40817;51.520;9.954;2022-12-07T15:46:23;4.53;;;2.22;;
11998;SDS011;40817;51.520;9.954;2022-12-07T15:48:55;4.70;;;2.90;;
11998;SDS011;40817;51.520;9.954;2022-12-07T15:51:23;6.28;;;3.20;;
11998;SDS011;40817;51.520;9.954;2022-12-07T15:53:51;9.50;;;3.15;;
11998;SDS011;40817;51.520;9.954;2022-12-07T15:56:21;4.88;;;2.95;;
11998;SDS011;40817;51.520;9.954;2022-12-07T15:58:49;6.93;;;2.88;;
11998;SDS011;40817;51.520;9.954;2022-12-07T16:01:17;7.82;;;3.28;;
11998;SDS011;40817;51.520;9.954;2022-12-07T16:03:46;8.13;;;3.63;;
11998;SDS011;40817;51.520;9.954;2022-12-07T16:06:15;11.75;;;3.83;;